Time;durP1;ratioP1;P1;durP2;ratioP2;P2;SDS_P1;SDS_P2;PMS_P1;PMS_P2;Temp;Humidity;BMP_temperature;BMP_pressure;BME280_temperature;BME280_humidity;BME280_pressure;Samples;Min_cycle;Max_cycle;Signal;HPM_P1;HPM_P2
2023/01/26 00:01:39;;;;;;;30.13;16.20;;;18.80;34.30;;;;;;5046754;28;20052;-42
2023/01/26 00:04:06;;;;;;;26.23;14.70;;;18.80;34.40;;;;;;5049465;28;20032;-41
2023/01/26 00:06:33;;;;;;;28.42;15.95;;;18.80;34.40;;;;;;5064399;28;20040;-45
2023/01/26 00:09:00;;;;;;;24.92;15.40;;;18.80;34.40;;;;;;5054364;28;20067;-48
2023/01/26 00:11:29;;;;;;;23.45;13.38;;;18.80;34.40;;;;;;5055222;28;20072;-45
2023/01/26 00:13:58;;;;;;;28.35;15.23;;;18.80;34.50;;;;;;5054997;28;20047;-47
2023/01/26 00:16:25;;;;;;;25.50;14.00;;;18.80;34.60;;;;;;5054113;28;20517;-48
2023/01/26 00:18:54;;;;;;;30.75;16.20;;;18.70;34.60;;;;;;5060422;28;20040;-47
2023/01/26 00:21:23;;;;;;;31.35;15.45;;;18.80;34.70;;;;;;5054128;28;20044;-46
2023/01/26 00:23:51;;;;;;;27.42;13.80;;;18.80;34.70;;;;;;5053895;28;20138;-49
2023/01/26 00:26:20;;;;;;;27.40;14.57;;;18.70;34.70;;;;;;5054751;28;20044;-47
2023/01/26 00:28:48;;;;;;;36.33;16.73;;;18.80;34.80;;;;;;5057231;28;20044;-47
2023/01/26 00:31:16;;;;;;;26.08;13.88;;;18.70;34.80;;;;;;5062234;28;20068;-49
2023/01/26 00:33:44;;;;;;;26.33;16.30;;;18.70;35.50;;;;;;5062472;28;20148;-47
2023/01/26 00:36:13;;;;;;;25.45;14.82;;;18.70;35.50;;;;;;5044092;28;20158;-48
2023/01/26 00:38:41;;;;;;;29.13;14.75;;;18.70;34.80;;;;;;5046316;28;20036;-50
2023/01/26 00:42:05;;;;;;;24.92;15.02;;;18.70;35.00;;;;;;5062169;28;20115;-50
2023/01/26 00:43:56;;;;;;;27.38;14.35;;;18.70;35.00;;;;;;5064842;28;20486;-48
2023/01/26 00:46:23;;;;;;;28.40;14.05;;;18.70;35.10;;;;;;5058960;28;20037;-48
2023/01/26 00:48:50;;;;;;;22.25;13.65;;;18.70;35.00;;;;;;5044986;28;20095;-49
2023/01/26 00:51:18;;;;;;;30.85;15.98;;;18.60;35.00;;;;;;5045038;28;20049;-45
2023/01/26 00:53:45;;;;;;;29.15;15.00;;;18.70;35.10;;;;;;5044420;28;20525;-47
2023/01/26 00:56:13;;;;;;;26.33;14.82;;;18.60;35.10;;;;;;5044487;28;20139;-47
2023/01/26 00:58:41;;;;;;;23.20;13.35;;;18.60;35.00;;;;;;5048007;28;20064;-48
2023/01/26 01:01:08;;;;;;;28.17;15.30;;;18.60;35.00;;;;;;5064901;28;20112;-50
2023/01/26 01:03:35;;;;;;;22.77;12.73;;;18.60;35.10;;;;;;5064785;28;20144;-46
2023/01/26 01:06:02;;;;;;;29.85;14.05;;;18.60;35.30;;;;;;5058704;28;20127;-45
2023/01/26 01:08:31;;;;;;;25.83;13.48;;;18.60;35.20;;;;;;5056924;28;20044;-48
2023/01/26 01:11:06;;;;;;;23.95;13.38;;;18.60;35.20;;;;;;5064698;28;20051;-48
2023/01/26 01:13:33;;;;;;;24.55;13.20;;;18.60;35.20;;;;;;5064530;28;20121;-46
2023/01/26 01:16:00;;;;;;;24.98;14.05;;;18.60;35.40;;;;;;5064662;28;20041;-50
2023/01/26 01:18:27;;;;;;;24.23;12.82;;;18.60;35.50;;;;;;5063482;28;20140;-47
2023/01/26 01:20:54;;;;;;;24.90;13.77;;;18.50;35.40;;;;;;5063388;28;20044;-49
2023/01/26 01:23:21;;;;;;;24.80;13.77;;;18.50;35.50;;;;;;5062747;28;20048;-49
2023/01/26 01:25:56;;;;;;;29.48;14.45;;;18.50;35.50;;;;;;5063864;28;20588;-48
2023/01/26 01:28:24;;;;;;;23.90;14.37;;;18.50;35.50;;;;;;5064987;28;20053;-48
2023/01/26 01:30:51;;;;;;;24.20;14.05;;;18.50;35.60;;;;;;5065127;28;20128;-51
2023/01/26 01:33:18;;;;;;;27.50;13.90;;;18.50;35.70;;;;;;5065174;28;20123;-49
2023/01/26 01:35:55;;;;;;;26.58;15.27;;;18.50;35.80;;;;;;5080622;28;20036;-48
2023/01/26 01:38:22;;;;;;;32.10;16.88;;;18.50;35.80;;;;;;5064156;28;20045;-50
2023/01/26 01:40:49;;;;;;;26.92;13.65;;;18.50;35.90;;;;;;5063222;28;20395;-46
2023/01/26 01:43:18;;;;;;;25.17;13.93;;;18.50;36.00;;;;;;5064159;28;20044;-46
2023/01/26 01:45:46;;;;;;;28.35;14.60;;;18.50;36.10;;;;;;5062063;28;20064;-50
2023/01/26 01:48:25;;;;;;;28.92;16.27;;;18.50;36.10;;;;;;5043696;28;20060;-47
2023/01/26 01:50:56;;;;;;;27.10;14.52;;;18.50;36.10;;;;;;5042450;28;20130;-51
2023/01/26 01:53:32;;;;;;;24.63;13.98;;;18.50;36.30;;;;;;5043283;28;20060;-51
2023/01/26 01:56:04;;;;;;;24.83;13.68;;;18.50;36.40;;;;;;5051997;28;20056;-49
2023/01/26 01:58:35;;;;;;;27.70;14.93;;;18.40;36.40;;;;;;5087454;28;20055;-47
2023/01/26 02:01:03;;;;;;;28.33;14.77;;;18.40;36.40;;;;;;5088251;28;20066;-51
2023/01/26 02:03:31;;;;;;;26.48;14.98;;;18.40;36.50;;;;;;5088095;28;20078;-50
2023/01/26 02:06:03;;;;;;;30.70;15.32;;;18.40;36.60;;;;;;5055489;28;20041;-46
2023/01/26 02:08:33;;;;;;;28.88;15.23;;;18.40;36.70;;;;;;5067582;28;20032;-49
2023/01/26 02:11:04;;;;;;;23.27;13.18;;;18.40;36.70;;;;;;5067502;28;20135;-47
2023/01/26 02:13:34;;;;;;;26.83;16.05;;;18.40;36.90;;;;;;5064183;28;20079;-49
2023/01/26 02:16:04;;;;;;;25.85;15.68;;;18.40;36.90;;;;;;5048683;28;20037;-47
2023/01/26 02:18:32;;;;;;;25.75;14.38;;;18.40;37.00;;;;;;5049002;28;20365;-47
2023/01/26 02:21:02;;;;;;;31.13;15.65;;;18.30;37.00;;;;;;5058594;28;20142;-49
2023/01/26 02:23:46;;;;;;;25.42;15.50;;;18.40;37.10;;;;;;5068758;28;20044;-48
2023/01/26 02:26:18;;;;;;;27.33;15.02;;;18.40;37.00;;;;;;5067358;28;20642;-45
2023/01/26 02:28:46;;;;;;;27.02;15.82;;;18.30;37.00;;;;;;5050632;28;20041;-47
2023/01/26 02:31:15;;;;;;;25.88;14.40;;;18.40;37.30;;;;;;5066696;28;20059;-49
2023/01/26 02:33:43;;;;;;;31.42;16.55;;;18.30;37.30;;;;;;5066668;28;20049;-47
2023/01/26 02:36:17;;;;;;;27.17;15.88;;;18.30;37.30;;;;;;5067020;28;20045;-52
2023/01/26 02:38:51;;;;;;;25.88;15.43;;;18.40;37.50;;;;;;5066522;28;20071;-47
2023/01/26 02:44:02;;;;;;;25.08;14.90;;;18.30;37.60;;;;;;5065836;28;20048;-47
2023/01/26 02:46:29;;;;;;;30.60;15.65;;;18.30;37.80;;;;;;5086461;28;20171;-47
2023/01/26 02:51:41;;;;;;;27.70;15.43;;;18.30;37.90;;;;;;5088329;28;20217;-50
2023/01/26 02:54:08;;;;;;;29.92;14.90;;;18.30;38.10;;;;;;5086768;28;20044;-47
2023/01/26 02:56:38;;;;;;;27.42;16.00;;;18.30;38.10;;;;;;5086748;28;20088;-46
2023/01/26 02:59:05;;;;;;;29.67;15.82;;;18.30;38.10;;;;;;5068159;28;20060;-45
2023/01/26 03:01:33;;;;;;;29.98;15.93;;;18.30;38.10;;;;;;5067584;28;20573;-48
2023/01/26 03:04:00;;;;;;;31.50;14.13;;;18.30;38.20;;;;;;5067356;28;20028;-47
2023/01/26 03:06:27;;;;;;;28.42;15.90;;;18.30;38.20;;;;;;5065103;28;20123;-51
2023/01/26 03:08:57;;;;;;;29.30;15.15;;;18.30;38.30;;;;;;5066329;28;20041;-49
2023/01/26 03:11:40;;;;;;;25.08;13.63;;;18.30;38.20;;;;;;5067266;28;20047;-46
2023/01/26 03:14:09;;;;;;;27.92;15.07;;;18.30;38.40;;;;;;5062791;28;20087;-47
2023/01/26 03:16:36;;;;;;;29.00;15.27;;;18.30;38.40;;;;;;5047484;28;20123;-47
2023/01/26 03:27:27;;;;;;;26.20;13.63;;;18.20;38.60;;;;;;5066159;28;20072;-45
2023/01/26 03:29:58;;;;;;;26.20;14.65;;;18.20;38.70;;;;;;5035732;28;20466;-48
2023/01/26 03:32:25;;;;;;;33.22;17.00;;;18.20;38.70;;;;;;5045661;28;20088;-45
2023/01/26 03:34:53;;;;;;;29.02;15.13;;;18.20;38.60;;;;;;5055921;28;20106;-47
2023/01/26 03:37:21;;;;;;;27.23;13.80;;;18.20;38.70;;;;;;5065699;28;20048;-45
2023/01/26 03:56:32;;;;;;;29.15;15.38;;;18.10;39.10;;;;;;5066551;28;20064;-47
2023/01/26 03:59:07;;;;;;;31.48;16.15;;;18.10;38.90;;;;;;5061931;28;20036;-49
2023/01/26 04:01:38;;;;;;;24.15;13.77;;;18.20;39.00;;;;;;5061336;28;20096;-47
2023/01/26 04:09:42;;;;;;;27.38;15.23;;;18.10;39.10;;;;;;5057803;28;20087;-49
2023/01/26 04:12:11;;;;;;;26.48;15.25;;;18.20;39.40;;;;;;5064624;28;20036;-46
2023/01/26 04:23:07;;;;;;;20.83;12.40;;;18.10;39.50;;;;;;5064249;28;20117;-47
2023/01/26 04:25:35;;;;;;;24.38;14.70;;;18.10;39.50;;;;;;5061511;28;20781;-47
2023/01/26 04:28:02;;;;;;;27.15;14.70;;;18.20;39.60;;;;;;5045942;28;20044;-50
2023/01/26 04:30:29;;;;;;;24.80;13.00;;;18.10;39.30;;;;;;5046249;28;20418;-47
2023/01/26 04:32:59;;;;;;;19.13;11.07;;;18.20;39.40;;;;;;5044453;28;20083;-48
2023/01/26 04:35:26;;;;;;;19.23;11.90;;;18.20;39.40;;;;;;5060487;28;20045;-48
2023/01/26 04:37:53;;;;;;;19.13;11.98;;;18.20;39.40;;;;;;5064454;28;20526;-48
2023/01/26 04:40:21;;;;;;;24.02;12.27;;;18.20;39.50;;;;;;5060634;28;20057;-46
2023/01/26 04:42:50;;;;;;;24.70;11.38;;;18.20;39.50;;;;;;5063722;28;20509;-47
2023/01/26 04:45:17;;;;;;;21.90;10.98;;;18.20;39.60;;;;;;5065182;28;20054;-49
2023/01/26 04:47:45;;;;;;;18.50;10.85;;;18.20;39.70;;;;;;5064548;28;20128;-49
2023/01/26 04:50:14;;;;;;;20.88;11.25;;;18.20;39.80;;;;;;5063986;28;20055;-47
2023/01/26 04:52:41;;;;;;;20.20;10.23;;;18.20;39.70;;;;;;5064154;28;20063;-50
2023/01/26 04:55:09;;;;;;;25.27;11.48;;;18.20;39.80;;;;;;5065314;28;20152;-48
2023/01/26 04:57:38;;;;;;;18.42;11.90;;;18.20;39.70;;;;;;5062650;28;20051;-48
2023/01/26 05:00:09;;;;;;;20.70;12.55;;;18.20;39.80;;;;;;5056991;28;20040;-48
2023/01/26 05:02:41;;;;;;;24.00;12.73;;;18.20;39.70;;;;;;5063798;28;20101;-50
2023/01/26 05:05:10;;;;;;;17.83;10.75;;;18.20;39.70;;;;;;5063686;28;20131;-50
2023/01/26 05:07:38;;;;;;;21.60;11.25;;;18.20;39.80;;;;;;5064014;28;20072;-51
2023/01/26 05:10:06;;;;;;;26.60;13.52;;;18.20;39.60;;;;;;5063475;28;20048;-50
2023/01/26 05:12:54;;;;;;;21.48;13.05;;;18.20;39.60;;;;;;5063583;28;20058;-46
2023/01/26 05:15:27;;;;;;;24.00;13.27;;;18.20;39.60;;;;;;5064768;28;20044;-47
2023/01/26 05:18:08;;;;;;;25.73;14.27;;;18.20;39.60;;;;;;5063776;28;20390;-49
2023/01/26 05:20:58;;;;;;;22.40;12.77;;;18.20;39.60;;;;;;5059179;28;20072;-51
2023/01/26 05:23:28;;;;;;;23.45;13.77;;;18.20;39.60;;;;;;5051564;28;20052;-50
2023/01/26 05:26:12;;;;;;;24.92;12.70;;;18.20;39.60;;;;;;5043873;28;20209;-49
2023/01/26 05:28:48;;;;;;;24.40;12.77;;;18.20;39.70;;;;;;5048840;28;20067;-50
2023/01/26 05:31:17;;;;;;;24.85;12.82;;;18.20;39.70;;;;;;5084443;28;20056;-47
2023/01/26 05:33:45;;;;;;;22.30;12.50;;;18.20;39.70;;;;;;5068144;28;20047;-48
2023/01/26 05:36:16;;;;;;;26.30;13.52;;;18.20;39.70;;;;;;5067853;28;20044;-46
2023/01/26 05:38:44;;;;;;;26.20;12.68;;;18.20;39.70;;;;;;5068969;28;20044;-47
2023/01/26 05:41:12;;;;;;;21.50;11.85;;;18.20;39.80;;;;;;5034259;28;20044;-48
2023/01/26 05:43:53;;;;;;;22.20;12.38;;;18.20;39.90;;;;;;5067242;28;20051;-47
2023/01/26 05:46:49;;;;;;;23.63;11.73;;;18.20;39.80;;;;;;5060664;28;20123;-48
2023/01/26 05:49:17;;;;;;;22.88;12.35;;;18.20;39.90;;;;;;5067779;28;20291;-46
2023/01/26 05:51:45;;;;;;;25.67;12.98;;;18.30;39.90;;;;;;5067479;28;20045;-49
2023/01/26 05:54:14;;;;;;;22.88;12.52;;;18.30;39.90;;;;;;5067277;28;20537;-47
2023/01/26 05:56:42;;;;;;;22.45;11.40;;;18.30;39.80;;;;;;5066800;28;20044;-49
2023/01/26 05:59:10;;;;;;;20.02;11.82;;;18.30;39.80;;;;;;5067277;28;20417;-49
2023/01/26 06:01:38;;;;;;;21.60;10.82;;;18.30;39.80;;;;;;5067266;28;20052;-46
2023/01/26 06:04:07;;;;;;;20.42;10.35;;;18.30;39.80;;;;;;5067202;28;20049;-47
2023/01/26 06:06:44;;;;;;;21.42;12.20;;;18.30;39.80;;;;;;5066902;28;20048;-45
2023/01/26 06:09:24;;;;;;;24.00;12.52;;;18.30;39.80;;;;;;5066688;28;20119;-46
2023/01/26 06:12:17;;;;;;;26.08;12.27;;;18.30;39.80;;;;;;5083433;28;20089;-46
2023/01/26 06:15:06;;;;;;;23.40;11.52;;;18.30;40.00;;;;;;5049935;28;20132;-46
2023/01/26 06:17:43;;;;;;;20.08;10.38;;;18.30;40.10;;;;;;5047242;28;20106;-47
2023/01/26 06:20:14;;;;;;;18.67;11.57;;;18.30;40.10;;;;;;5050899;28;20048;-52
2023/01/26 06:22:48;;;;;;;18.92;11.38;;;18.30;40.20;;;;;;5066330;28;20211;-49
2023/01/26 06:25:17;;;;;;;24.67;13.32;;;18.30;40.30;;;;;;5066132;28;20055;-46
2023/01/26 06:27:45;;;;;;;21.88;10.85;;;18.30;40.30;;;;;;5065981;28;20434;-49
2023/01/26 06:30:26;;;;;;;20.52;11.48;;;18.30;40.30;;;;;;5050554;28;20048;-49
2023/01/26 06:32:55;;;;;;;19.98;11.13;;;18.30;40.40;;;;;;5046139;28;20049;-46
2023/01/26 06:35:22;;;;;;;25.33;12.00;;;18.30;40.40;;;;;;5061675;28;20148;-49
2023/01/26 06:37:51;;;;;;;21.15;12.10;;;18.30;40.30;;;;;;5053492;28;20512;-46
2023/01/26 06:40:19;;;;;;;22.95;11.52;;;18.30;40.40;;;;;;5064907;28;20044;-47
2023/01/26 06:42:50;;;;;;;21.15;11.25;;;18.30;40.40;;;;;;5062112;28;20048;-48
2023/01/26 06:45:19;;;;;;;17.33;10.98;;;18.40;40.50;;;;;;5060999;28;20073;-48
2023/01/26 06:47:49;;;;;;;22.17;12.80;;;18.40;40.50;;;;;;5049564;28;20450;-46
2023/01/26 06:50:19;;;;;;;20.85;10.90;;;18.40;40.50;;;;;;5066169;28;20044;-48
2023/01/26 06:52:51;;;;;;;20.55;11.35;;;18.40;40.50;;;;;;5065645;28;20075;-46
2023/01/26 06:55:50;;;;;;;20.80;11.45;;;18.30;40.50;;;;;;5046828;28;20080;-46
2023/01/26 06:58:35;;;;;;;18.67;11.18;;;18.40;40.70;;;;;;5063268;28;20049;-48
2023/01/26 07:01:25;;;;;;;16.23;10.15;;;18.30;40.70;;;;;;5064264;28;20115;-45
2023/01/26 07:03:53;;;;;;;18.45;9.88;;;18.40;40.80;;;;;;5047589;28;20147;-46
2023/01/26 07:06:21;;;;;;;17.83;9.95;;;18.40;40.70;;;;;;5064461;28;20369;-47
2023/01/26 07:08:48;;;;;;;15.52;9.52;;;18.40;40.70;;;;;;5049027;28;20103;-47
2023/01/26 07:11:18;;;;;;;19.75;11.80;;;18.40;40.70;;;;;;5027286;28;20051;-46
2023/01/26 07:13:46;;;;;;;15.52;9.55;;;18.40;40.60;;;;;;5044530;28;20061;-47
2023/01/26 07:16:15;;;;;;;17.60;9.55;;;18.40;40.70;;;;;;5044585;28;20045;-49
2023/01/26 07:18:42;;;;;;;18.65;11.60;;;18.40;40.70;;;;;;5044022;28;20132;-46
2023/01/26 07:21:12;;;;;;;17.85;10.52;;;18.40;40.60;;;;;;5044049;28;20103;-46
2023/01/26 07:23:39;;;;;;;15.13;9.60;;;18.40;40.60;;;;;;5044260;28;20148;-50
2023/01/26 07:26:07;;;;;;;14.68;9.23;;;18.40;40.60;;;;;;5044297;28;20060;-45
2023/01/26 07:28:35;;;;;;;18.08;10.10;;;18.40;40.60;;;;;;5042206;28;20049;-49
2023/01/26 07:31:04;;;;;;;18.23;9.73;;;18.40;40.60;;;;;;5024265;28;20058;-46
2023/01/26 07:33:32;;;;;;;16.95;10.05;;;18.50;40.60;;;;;;5062704;28;20175;-47
2023/01/26 07:36:00;;;;;;;17.35;9.95;;;18.50;40.50;;;;;;5067235;28;20195;-47
2023/01/26 07:38:28;;;;;;;16.90;9.40;;;18.50;40.50;;;;;;5065593;28;20044;-48
2023/01/26 07:40:55;;;;;;;19.35;10.50;;;18.40;40.40;;;;;;5066517;28;20040;-52
2023/01/26 07:43:23;;;;;;;14.63;8.00;;;18.50;40.50;;;;;;5066764;28;20041;-50
2023/01/26 07:45:54;;;;;;;16.73;9.57;;;18.50;40.50;;;;;;5065830;28;20143;-49
2023/01/26 07:48:23;;;;;;;17.58;10.63;;;18.50;40.40;;;;;;5066877;28;20059;-46
2023/01/26 07:50:51;;;;;;;14.13;9.80;;;18.50;40.40;;;;;;5066439;28;20049;-51
2023/01/26 07:53:21;;;;;;;14.57;9.35;;;18.50;40.50;;;;;;5066175;28;20044;-49
2023/01/26 07:55:48;;;;;;;15.00;8.48;;;18.50;40.50;;;;;;5065958;28;20456;-48
2023/01/26 07:58:17;;;;;;;18.45;9.73;;;18.50;40.40;;;;;;5066049;28;20041;-45
2023/01/26 08:00:45;;;;;;;14.65;8.30;;;18.50;40.40;;;;;;5066309;28;20302;-48
2023/01/26 08:03:14;;;;;;;18.83;10.77;;;18.50;40.40;;;;;;5065882;28;20497;-48
2023/01/26 08:05:42;;;;;;;17.38;9.15;;;18.50;40.40;;;;;;5065855;28;20135;-45
2023/01/26 08:08:09;;;;;;;16.92;9.55;;;18.50;40.40;;;;;;5065533;28;20123;-47
2023/01/26 08:10:37;;;;;;;20.27;9.98;;;18.50;40.20;;;;;;5064292;28;20071;-49
2023/01/26 08:13:04;;;;;;;16.67;9.77;;;18.50;40.20;;;;;;5058160;28;20048;-49
2023/01/26 08:15:31;;;;;;;17.17;9.07;;;18.50;40.20;;;;;;5045988;28;20098;-47
2023/01/26 08:18:02;;;;;;;16.17;9.18;;;18.50;40.10;;;;;;5045816;28;20188;-47
2023/01/26 08:20:31;;;;;;;12.18;7.32;;;18.50;40.40;;;;;;5051980;28;20044;-45
2023/01/26 08:22:59;;;;;;;14.50;8.13;;;18.60;40.70;;;;;;5065678;28;20152;-48
2023/01/26 08:25:27;;;;;;;19.98;9.45;;;18.50;40.90;;;;;;5065340;28;20036;-49
2023/01/26 08:27:54;;;;;;;16.15;9.88;;;18.50;40.40;;;;;;5061568;28;20106;-52
2023/01/26 08:30:21;;;;;;;19.85;9.98;;;18.60;41.00;;;;;;5055028;28;20040;-50
2023/01/26 08:32:48;;;;;;;16.00;8.52;;;18.50;41.30;;;;;;5055918;28;20091;-50
2023/01/26 08:35:16;;;;;;;16.83;11.05;;;18.50;41.40;;;;;;5064952;28;20595;-47
2023/01/26 08:37:44;;;;;;;16.65;9.02;;;18.50;41.50;;;;;;5060953;28;20072;-48
2023/01/26 08:40:12;;;;;;;15.20;9.07;;;18.50;41.40;;;;;;5064980;28;20047;-48
2023/01/26 08:42:39;;;;;;;15.80;10.23;;;18.60;41.40;;;;;;5064897;28;20048;-47
2023/01/26 08:45:07;;;;;;;20.35;10.48;;;18.60;41.40;;;;;;5064901;28;20489;-52
2023/01/26 08:47:34;;;;;;;19.17;8.95;;;18.60;42.00;;;;;;5064624;28;20542;-47
2023/01/26 08:50:03;;;;;;;20.83;10.88;;;18.60;41.30;;;;;;5065158;28;20155;-47
2023/01/26 08:52:31;;;;;;;16.90;9.98;;;18.70;41.20;;;;;;5065037;28;20040;-47
2023/01/26 08:55:00;;;;;;;18.35;10.20;;;18.70;41.10;;;;;;5056546;28;20041;-48
2023/01/26 08:57:28;;;;;;;17.50;10.07;;;18.70;41.10;;;;;;5044809;28;20095;-46
2023/01/26 08:59:55;;;;;;;19.90;11.27;;;18.80;41.20;;;;;;5045114;28;20037;-44
2023/01/26 09:02:22;;;;;;;18.45;11.15;;;18.90;41.30;;;;;;5044892;28;20045;-43
2023/01/26 09:04:49;;;;;;;16.83;10.60;;;19.00;41.20;;;;;;5053065;28;20048;-48
2023/01/26 09:07:16;;;;;;;16.77;10.70;;;19.10;41.20;;;;;;5055231;28;20510;-44
2023/01/26 09:09:43;;;;;;;20.42;11.05;;;19.10;41.10;;;;;;5064675;28;20036;-44
2023/01/26 09:12:12;;;;;;;15.02;8.82;;;19.30;41.10;;;;;;5064679;28;20053;-48
2023/01/26 09:14:40;;;;;;;17.67;9.43;;;19.40;41.00;;;;;;5064556;28;20086;-45
2023/01/26 09:17:07;;;;;;;15.38;8.75;;;19.50;40.70;;;;;;5064956;28;20040;-44
2023/01/26 09:19:34;;;;;;;12.30;7.72;;;19.60;40.60;;;;;;5064676;28;20171;-46
2023/01/26 09:22:01;;;;;;;13.20;8.23;;;19.70;40.50;;;;;;5064866;28;20051;-46
2023/01/26 09:24:28;;;;;;;14.77;7.53;;;19.80;40.30;;;;;;5065437;28;20040;-46
2023/01/26 09:26:55;;;;;;;10.63;7.30;;;19.90;40.20;;;;;;5064789;28;20509;-45
2023/01/26 09:29:24;;;;;;;10.43;6.85;;;20.00;40.10;;;;;;5064808;28;20102;-45
2023/01/26 09:31:52;;;;;;;11.52;7.90;;;20.10;40.00;;;;;;5055032;28;20051;-45
2023/01/26 09:34:19;;;;;;;14.50;8.50;;;20.20;40.00;;;;;;5043117;28;20047;-45
2023/01/26 09:36:46;;;;;;;10.10;6.68;;;20.30;39.80;;;;;;5044964;28;20071;-44
2023/01/26 09:39:13;;;;;;;14.13;7.70;;;20.40;39.70;;;;;;5062176;28;20114;-48
2023/01/26 09:41:56;;;;;;;10.43;6.65;;;20.50;39.60;;;;;;5063365;28;20055;-43
2023/01/26 09:44:26;;;;;;;13.27;8.73;;;20.60;39.40;;;;;;5065016;28;20055;-46
2023/01/26 09:47:02;;;;;;;9.73;7.10;;;20.70;39.40;;;;;;5064953;28;20505;-46
2023/01/26 09:49:42;;;;;;;10.77;6.45;;;20.80;39.30;;;;;;5064762;28;20130;-45
2023/01/26 09:52:16;;;;;;;12.40;6.60;;;20.90;39.20;;;;;;5064708;28;20048;-47
2023/01/26 09:54:46;;;;;;;9.23;6.25;;;21.00;39.10;;;;;;5065160;28;20045;-44
2023/01/26 09:57:16;;;;;;;10.00;7.05;;;21.10;39.20;;;;;;5064656;28;20131;-45
2023/01/26 09:59:50;;;;;;;10.07;7.35;;;21.20;39.20;;;;;;5064940;28;20037;-49
2023/01/26 10:02:28;;;;;;;12.80;6.70;;;21.30;39.10;;;;;;5064647;28;20045;-47
2023/01/26 10:05:02;;;;;;;14.02;7.47;;;21.30;39.00;;;;;;5063344;28;20043;-44
2023/01/26 10:07:29;;;;;;;12.90;8.45;;;21.40;39.00;;;;;;5063613;28;20051;-45
2023/01/26 10:09:57;;;;;;;12.68;8.57;;;21.50;38.80;;;;;;5064849;28;20071;-46
2023/01/26 10:12:28;;;;;;;14.23;9.20;;;21.50;38.60;;;;;;5063781;28;20053;-45
2023/01/26 10:15:02;;;;;;;14.38;8.73;;;21.50;38.30;;;;;;5048226;28;20061;-45
2023/01/26 10:17:33;;;;;;;10.95;7.78;;;21.50;38.00;;;;;;5048546;28;20396;-48
2023/01/26 10:20:05;;;;;;;14.00;9.15;;;21.50;38.00;;;;;;5048377;28;20076;-49
2023/01/26 10:22:40;;;;;;;11.70;7.15;;;21.50;37.90;;;;;;5047684;28;20056;-47
2023/01/26 10:25:15;;;;;;;12.98;7.80;;;21.50;37.90;;;;;;5048069;28;20075;-48
2023/01/26 10:27:44;;;;;;;11.38;7.82;;;21.50;37.80;;;;;;5047993;28;20045;-49
2023/01/26 10:30:15;;;;;;;9.50;6.88;;;21.40;37.90;;;;;;5047771;28;20040;-47
2023/01/26 10:32:43;;;;;;;14.88;9.05;;;21.40;37.80;;;;;;5058357;28;20041;-51
2023/01/26 10:35:16;;;;;;;10.55;8.07;;;21.30;37.80;;;;;;5053528;28;20619;-46
2023/01/26 10:37:44;;;;;;;13.25;9.07;;;21.30;37.70;;;;;;5052947;28;20065;-46
2023/01/26 10:40:12;;;;;;;12.35;7.97;;;21.30;37.70;;;;;;5067445;28;20067;-49
2023/01/26 10:42:40;;;;;;;10.05;7.20;;;21.30;37.70;;;;;;5067240;28;20063;-55
2023/01/26 10:45:26;;;;;;;12.98;8.07;;;21.20;37.60;;;;;;5067505;28;20044;-46
2023/01/26 10:48:04;;;;;;;;;;;21.20;37.50;;;;;;5067595;28;20052;-46
2023/01/26 10:50:31;;;;;;;12.52;8.15;;;21.10;38.00;;;;;;5066848;28;20019;-47
2023/01/26 10:53:00;;;;;;;11.75;8.38;;;21.10;37.90;;;;;;5066949;28;20055;-44
2023/01/26 10:55:29;;;;;;;11.40;8.02;;;21.10;37.80;;;;;;5066832;28;20051;-46
2023/01/26 10:57:56;;;;;;;12.23;7.45;;;21.10;37.80;;;;;;5066745;28;20040;-43
2023/01/26 11:00:28;;;;;;;16.40;8.43;;;21.10;37.70;;;;;;5065746;28;20090;-45
2023/01/26 11:03:02;;;;;;;13.02;7.13;;;21.00;37.60;;;;;;5066792;28;20858;-47
2023/01/26 11:05:30;;;;;;;12.40;7.78;;;21.10;37.60;;;;;;5063786;28;20383;-49
2023/01/26 11:07:59;;;;;;;10.63;7.47;;;21.00;37.60;;;;;;5053696;28;20032;-47
2023/01/26 11:10:29;;;;;;;9.13;7.43;;;21.00;37.50;;;;;;5066869;28;20049;-46
2023/01/26 11:13:18;;;;;;;12.25;9.07;;;21.00;37.50;;;;;;5066578;28;20048;-44
2023/01/26 11:15:49;;;;;;;12.80;8.32;;;21.00;37.40;;;;;;5066572;28;20072;-44
2023/01/26 11:18:26;;;;;;;14.63;8.57;;;20.90;37.50;;;;;;5066798;28;20068;-46
2023/01/26 11:21:00;;;;;;;9.85;6.93;;;20.90;37.40;;;;;;5066599;28;20075;-43
2023/01/26 11:23:48;;;;;;;12.73;9.05;;;20.90;37.40;;;;;;5066648;28;20041;-46
2023/01/26 11:26:39;;;;;;;12.38;8.07;;;20.90;37.40;;;;;;5065468;28;20576;-43
2023/01/26 11:29:27;;;;;;;12.68;7.82;;;20.90;37.40;;;;;;5059976;28;20660;-46
2023/01/26 11:32:06;;;;;;;11.73;7.65;;;20.80;37.30;;;;;;5050504;28;20071;-46
2023/01/26 11:34:42;;;;;;;8.32;6.22;;;20.80;37.40;;;;;;5061067;28;20514;-43
2023/01/26 11:37:38;;;;;;;9.75;6.25;;;20.80;37.90;;;;;;5045435;28;20087;-43
2023/01/26 11:40:22;;;;;;;11.85;6.00;;;20.70;38.10;;;;;;5056751;28;20040;-44
2023/01/26 11:43:04;;;;;;;17.83;7.07;;;20.70;38.50;;;;;;5053370;28;20132;-44
2023/01/26 11:45:36;;;;;;;10.18;5.78;;;20.60;38.70;;;;;;5045677;28;20037;-41
2023/01/26 11:48:16;;;;;;;10.55;6.28;;;20.60;39.10;;;;;;5046201;28;20045;-46
2023/01/26 11:50:47;;;;;;;14.73;9.18;;;20.60;39.30;;;;;;5044887;28;20056;-44
2023/01/26 11:53:39;;;;;;;10.13;7.10;;;20.60;39.30;;;;;;5046184;28;20084;-42
2023/01/26 11:56:19;;;;;;;10.50;6.57;;;20.50;39.20;;;;;;5046055;28;20095;-41
2023/01/26 11:58:52;;;;;;;9.30;6.50;;;20.50;39.30;;;;;;5045961;28;20129;-45
2023/01/26 12:01:27;;;;;;;11.23;5.95;;;20.40;39.40;;;;;;5045518;28;20056;-41
2023/01/26 12:03:57;;;;;;;10.00;6.65;;;20.40;39.50;;;;;;5046023;28;20044;-43
2023/01/26 12:06:31;;;;;;;11.63;5.82;;;20.30;39.50;;;;;;5053617;28;20045;-43
2023/01/26 12:09:02;;;;;;;9.15;5.85;;;20.30;39.50;;;;;;5056715;28;20770;-44
2023/01/26 12:11:35;;;;;;;11.02;6.82;;;20.20;39.60;;;;;;5057117;28;20061;-42
2023/01/26 12:14:15;;;;;;;11.93;6.55;;;20.20;39.60;;;;;;5053007;28;20041;-41
2023/01/26 12:17:16;;;;;;;9.10;6.15;;;20.20;39.70;;;;;;5053393;28;20033;-41
2023/01/26 12:19:52;;;;;;;6.95;5.45;;;20.10;39.70;;;;;;5054683;28;20052;-41
2023/01/26 12:22:24;;;;;;;13.48;6.03;;;20.00;39.70;;;;;;5065512;28;20516;-41
2023/01/26 12:24:56;;;;;;;16.38;6.07;;;20.00;39.90;;;;;;5065427;28;20117;-41
2023/01/26 12:27:28;;;;;;;11.30;4.88;;;19.90;39.90;;;;;;5065233;28;20582;-40
2023/01/26 12:30:02;;;;;;;8.23;5.10;;;19.90;40.40;;;;;;5051726;28;20037;-39
2023/01/26 12:32:29;;;;;;;12.77;5.28;;;19.90;40.00;;;;;;5048348;28;20402;-41
2023/01/26 12:34:59;;;;;;;11.27;5.50;;;19.80;40.00;;;;;;5044138;28;20426;-42
2023/01/26 12:37:41;;;;;;;7.78;5.45;;;19.80;40.10;;;;;;5047719;28;20406;-42
2023/01/26 12:40:25;;;;;;;7.13;3.80;;;19.70;40.10;;;;;;5065149;28;20131;-43
2023/01/26 12:42:59;;;;;;;8.75;6.05;;;19.70;40.20;;;;;;5064516;28;20044;-47
2023/01/26 12:45:31;;;;;;;8.02;3.85;;;19.60;40.30;;;;;;5065040;28;20463;-41
2023/01/26 12:48:09;;;;;;;8.65;4.10;;;19.60;40.30;;;;;;5064985;28;20052;-43
2023/01/26 12:50:41;;;;;;;6.00;3.70;;;19.50;40.30;;;;;;5065420;28;20045;-44
2023/01/26 12:53:14;;;;;;;6.20;3.65;;;19.50;40.40;;;;;;5054841;28;20132;-42
2023/01/26 12:55:45;;;;;;;8.02;3.35;;;19.50;40.40;;;;;;5045007;28;20207;-41
2023/01/26 12:58:17;;;;;;;8.23;3.88;;;19.40;40.40;;;;;;5044813;28;20128;-44
2023/01/26 13:00:53;;;;;;;3.70;2.80;;;19.40;40.50;;;;;;5045203;28;20584;-44
2023/01/26 13:03:25;;;;;;;5.45;3.05;;;19.40;40.60;;;;;;5050620;28;20041;-49
2023/01/26 13:05:58;;;;;;;6.38;2.97;;;19.30;40.40;;;;;;5063859;28;20037;-52
2023/01/26 13:08:52;;;;;;;5.20;2.97;;;19.40;40.30;;;;;;5065032;28;20139;-53
2023/01/26 13:11:43;;;;;;;2.22;1.92;;;19.40;40.20;;;;;;5061307;28;20696;-47
2023/01/26 13:14:37;;;;;;;4.57;2.13;;;19.50;40.20;;;;;;5058437;28;20094;-47
2023/01/26 13:17:41;;;;;;;3.70;2.47;;;19.60;40.50;;;;;;5054534;28;20045;-44
2023/01/26 13:20:42;;;;;;;2.97;2.03;;;19.60;40.50;;;;;;4993180;28;20698;-45
2023/01/26 13:23:42;;;;;;;1.73;1.45;;;19.60;40.40;;;;;;4963507;28;20439;-43
2023/01/26 13:26:41;;;;;;;3.80;2.00;;;19.60;40.30;;;;;;4952150;28;20464;-43
2023/01/26 13:29:51;;;;;;;4.13;2.25;;;19.70;40.40;;;;;;4963512;28;20751;-44
2023/01/26 13:32:56;;;;;;;4.20;1.60;;;19.70;40.20;;;;;;4906289;29;20067;-45
2023/01/26 13:35:26;;;;;;;2.00;1.75;;;19.70;40.20;;;;;;4906176;29;20238;-46
2023/01/26 13:37:58;;;;;;;5.32;1.95;;;19.70;40.10;;;;;;4905711;29;20044;-43
2023/01/26 13:40:31;;;;;;;3.42;2.15;;;19.70;40.00;;;;;;4905150;29;20048;-43
2023/01/26 13:43:03;;;;;;;3.40;1.55;;;19.70;40.00;;;;;;4905017;29;20123;-43